sensor_id;sensor_type;location;lat;lon;timestamp;temperature;humidity
19085;DHT22;9675;51.538;6.728;2023-07-31T00:00:15;18.90;99.90
19085;DHT22;9675;51.538;6.728;2023-07-31T00:02:43;18.90;99.90
19085;DHT22;9675;51.538;6.728;2023-07-31T00:05:10;18.90;99.90
19085;DHT22;9675;51.538;6.728;2023-07-31T00:07:37;18.90;99.90
19085;DHT22;9675;51.538;6.728;2023-07-31T00:10:05;18.80;99.90
19085;DHT22;9675;51.538;6.728;2023-07-31T00:12:33;18.80;99.90
19085;DHT22;9675;51.538;6.728;2023-07-31T00:15:00;18.80;99.90
19085;DHT22;9675;51.538;6.728;2023-07-31T00:17:27;18.80;99.90
19085;DHT22;9675;51.538;6.728;2023-07-31T00:19:56;18.70;99.90
19085;DHT22;9675;51.538;6.728;2023-07-31T00:22:23;18.70;99.90
19085;DHT22;9675;51.538;6.728;2023-07-31T00:24:50;18.70;99.90
19085;DHT22;9675;51.538;6.728;2023-07-31T00:27:18;18.70;99.90
19085;DHT22;9675;51.538;6.728;2023-07-31T00:29:45;18.70;99.90
19085;DHT22;9675;51.538;6.728;2023-07-31T00:32:12;18.60;99.90
19085;DHT22;9675;51.538;6.728;2023-07-31T00:34:39;18.60;99.90
19085;DHT22;9675;51.538;6.728;2023-07-31T00:37:07;18.60;99.90
19085;DHT22;9675;51.538;6.728;2023-07-31T00:39:34;18.60;99.90
19085;DHT22;9675;51.538;6.728;2023-07-31T00:42:02;18.60;99.90
19085;DHT22;9675;51.538;6.728;2023-07-31T00:44:30;18.60;99.90
19085;DHT22;9675;51.538;6.728;2023-07-31T00:46:57;18.60;99.90
19085;DHT22;9675;51.538;6.728;2023-07-31T00:49:25;18.50;99.90
19085;DHT22;9675;51.538;6.728;2023-07-31T00:51:53;18.50;99.90
19085;DHT22;9675;51.538;6.728;2023-07-31T00:54:24;18.50;99.90
19085;DHT22;9675;51.538;6.728;2023-07-31T00:56:53;18.50;99.90
19085;DHT22;9675;51.538;6.728;2023-07-31T00:59:21;18.50;99.90
19085;DHT22;9675;51.538;6.728;2023-07-31T01:01:48;18.50;99.90
19085;DHT22;9675;51.538;6.728;2023-07-31T01:04:17;18.50;99.90
19085;DHT22;9675;51.538;6.728;2023-07-31T01:06:52;18.50;99.90
19085;DHT22;9675;51.538;6.728;2023-07-31T01:09:42;18.40;99.90
19085;DHT22;9675;51.538;6.728;2023-07-31T01:12:14;18.50;99.90
19085;DHT22;9675;51.538;6.728;2023-07-31T01:14:51;18.50;99.90
19085;DHT22;9675;51.538;6.728;2023-07-31T01:17:19;18.50;99.90
19085;DHT22;9675;51.538;6.728;2023-07-31T01:19:46;18.50;99.90
19085;DHT22;9675;51.538;6.728;2023-07-31T01:22:33;18.40;99.90
19085;DHT22;9675;51.538;6.728;2023-07-31T01:25:29;18.40;99.90
19085;DHT22;9675;51.538;6.728;2023-07-31T01:28:13;18.40;99.90
19085;DHT22;9675;51.538;6.728;2023-07-31T01:30:48;18.40;99.90
19085;DHT22;9675;51.538;6.728;2023-07-31T01:33:16;18.40;99.90
19085;DHT22;9675;51.538;6.728;2023-07-31T01:35:45;18.40;99.90
19085;DHT22;9675;51.538;6.728;2023-07-31T01:38:13;18.40;99.90
19085;DHT22;9675;51.538;6.728;2023-07-31T01:40:41;18.40;99.90
19085;DHT22;9675;51.538;6.728;2023-07-31T01:43:10;18.40;99.90
19085;DHT22;9675;51.538;6.728;2023-07-31T01:45:37;18.40;99.90
19085;DHT22;9675;51.538;6.728;2023-07-31T01:48:04;18.40;99.90
19085;DHT22;9675;51.538;6.728;2023-07-31T01:50:31;18.30;99.90
19085;DHT22;9675;51.538;6.728;2023-07-31T01:52:58;18.30;99.90
19085;DHT22;9675;51.538;6.728;2023-07-31T01:55:25;18.40;99.90
19085;DHT22;9675;51.538;6.728;2023-07-31T01:57:53;18.30;99.90
19085;DHT22;9675;51.538;6.728;2023-07-31T02:00:21;18.30;99.90
19085;DHT22;9675;51.538;6.728;2023-07-31T02:02:48;18.30;99.90
19085;DHT22;9675;51.538;6.728;2023-07-31T02:05:15;18.30;99.90
19085;DHT22;9675;51.538;6.728;2023-07-31T02:07:42;18.20;99.90
19085;DHT22;9675;51.538;6.728;2023-07-31T02:10:09;18.20;99.90
19085;DHT22;9675;51.538;6.728;2023-07-31T02:12:36;18.20;99.90
19085;DHT22;9675;51.538;6.728;2023-07-31T02:15:04;18.30;99.90
19085;DHT22;9675;51.538;6.728;2023-07-31T02:17:33;18.20;99.90
19085;DHT22;9675;51.538;6.728;2023-07-31T02:20:00;18.20;99.90
19085;DHT22;9675;51.538;6.728;2023-07-31T02:22:27;18.20;99.90
19085;DHT22;9675;51.538;6.728;2023-07-31T02:24:54;18.20;99.90
19085;DHT22;9675;51.538;6.728;2023-07-31T02:27:21;18.10;99.90
19085;DHT22;9675;51.538;6.728;2023-07-31T02:29:52;18.10;99.90
19085;DHT22;9675;51.538;6.728;2023-07-31T02:32:19;18.10;99.90
19085;DHT22;9675;51.538;6.728;2023-07-31T02:34:48;18.10;99.90
19085;DHT22;9675;51.538;6.728;2023-07-31T02:37:15;18.10;99.90
19085;DHT22;9675;51.538;6.728;2023-07-31T02:39:42;18.10;99.90
19085;DHT22;9675;51.538;6.728;2023-07-31T02:42:09;18.10;99.90
19085;DHT22;9675;51.538;6.728;2023-07-31T02:44:36;18.10;99.90
19085;DHT22;9675;51.538;6.728;2023-07-31T02:47:03;18.10;99.90
19085;DHT22;9675;51.538;6.728;2023-07-31T02:49:30;18.10;99.90
19085;DHT22;9675;51.538;6.728;2023-07-31T02:51:59;18.00;99.90
19085;DHT22;9675;51.538;6.728;2023-07-31T02:54:26;18.10;99.90
19085;DHT22;9675;51.538;6.728;2023-07-31T02:56:53;18.10;99.90
19085;DHT22;9675;51.538;6.728;2023-07-31T02:59:20;18.10;99.90
19085;DHT22;9675;51.538;6.728;2023-07-31T03:01:47;18.10;99.90
19085;DHT22;9675;51.538;6.728;2023-07-31T03:04:14;18.10;99.90
19085;DHT22;9675;51.538;6.728;2023-07-31T03:06:41;18.10;99.90
19085;DHT22;9675;51.538;6.728;2023-07-31T03:09:10;18.10;99.90
19085;DHT22;9675;51.538;6.728;2023-07-31T03:11:36;18.10;99.90
19085;DHT22;9675;51.538;6.728;2023-07-31T03:14:03;18.10;99.90
19085;DHT22;9675;51.538;6.728;2023-07-31T03:16:30;18.10;99.90
19085;DHT22;9675;51.538;6.728;2023-07-31T03:18:57;18.10;99.90
19085;DHT22;9675;51.538;6.728;2023-07-31T03:21:24;18.10;99.90
19085;DHT22;9675;51.538;6.728;2023-07-31T03:23:51;18.10;99.90
19085;DHT22;9675;51.538;6.728;2023-07-31T03:26:20;18.10;99.90
19085;DHT22;9675;51.538;6.728;2023-07-31T03:28:47;18.10;99.90
19085;DHT22;9675;51.538;6.728;2023-07-31T03:31:15;18.10;99.90
19085;DHT22;9675;51.538;6.728;2023-07-31T03:33:42;18.10;99.90
19085;DHT22;9675;51.538;6.728;2023-07-31T03:36:09;18.10;99.90
19085;DHT22;9675;51.538;6.728;2023-07-31T03:38:36;18.10;99.90
19085;DHT22;9675;51.538;6.728;2023-07-31T03:41:03;18.10;99.90
19085;DHT22;9675;51.538;6.728;2023-07-31T03:43:33;18.10;99.90
19085;DHT22;9675;51.538;6.728;2023-07-31T03:46:00;18.00;99.90
19085;DHT22;9675;51.538;6.728;2023-07-31T03:48:28;18.00;99.90
19085;DHT22;9675;51.538;6.728;2023-07-31T03:50:55;18.00;99.90
19085;DHT22;9675;51.538;6.728;2023-07-31T03:53:22;18.00;99.90
19085;DHT22;9675;51.538;6.728;2023-07-31T03:55:49;18.00;99.90
19085;DHT22;9675;51.538;6.728;2023-07-31T03:58:16;18.00;99.90
19085;DHT22;9675;51.538;6.728;2023-07-31T04:00:45;18.00;99.90
19085;DHT22;9675;51.538;6.728;2023-07-31T04:03:12;18.10;99.90
19085;DHT22;9675;51.538;6.728;2023-07-31T04:05:39;18.00;99.90
19085;DHT22;9675;51.538;6.728;2023-07-31T04:08:06;18.00;99.90
19085;DHT22;9675;51.538;6.728;2023-07-31T04:10:33;18.00;99.90
19085;DHT22;9675;51.538;6.728;2023-07-31T04:13:00;18.00;99.90
19085;DHT22;9675;51.538;6.728;2023-07-31T04:15:27;18.00;99.90
19085;DHT22;9675;51.538;6.728;2023-07-31T04:17:56;18.10;99.90
19085;DHT22;9675;51.538;6.728;2023-07-31T04:20:23;18.00;99.90
19085;DHT22;9675;51.538;6.728;2023-07-31T04:22:50;18.00;99.90
19085;DHT22;9675;51.538;6.728;2023-07-31T04:25:17;18.00;99.90
19085;DHT22;9675;51.538;6.728;2023-07-31T04:27:44;18.10;99.90
19085;DHT22;9675;51.538;6.728;2023-07-31T04:30:11;18.10;99.90
19085;DHT22;9675;51.538;6.728;2023-07-31T04:32:38;18.10;99.90
19085;DHT22;9675;51.538;6.728;2023-07-31T04:35:07;18.10;99.90
19085;DHT22;9675;51.538;6.728;2023-07-31T04:37:34;18.10;99.90
19085;DHT22;9675;51.538;6.728;2023-07-31T04:40:01;18.10;99.90
19085;DHT22;9675;51.538;6.728;2023-07-31T04:42:28;18.10;99.90
19085;DHT22;9675;51.538;6.728;2023-07-31T04:44:55;18.10;99.90
19085;DHT22;9675;51.538;6.728;2023-07-31T04:47:22;18.00;99.90
19085;DHT22;9675;51.538;6.728;2023-07-31T04:49:49;18.10;99.90
19085;DHT22;9675;51.538;6.728;2023-07-31T04:52:18;18.00;99.90
19085;DHT22;9675;51.538;6.728;2023-07-31T04:54:45;18.00;99.90
19085;DHT22;9675;51.538;6.728;2023-07-31T04:57:12;18.00;99.90
19085;DHT22;9675;51.538;6.728;2023-07-31T04:59:39;18.00;99.90
19085;DHT22;9675;51.538;6.728;2023-07-31T05:02:07;18.00;99.90
19085;DHT22;9675;51.538;6.728;2023-07-31T05:04:35;18.00;99.90
19085;DHT22;9675;51.538;6.728;2023-07-31T05:07:02;18.00;99.90
19085;DHT22;9675;51.538;6.728;2023-07-31T05:09:30;18.10;99.90
19085;DHT22;9675;51.538;6.728;2023-07-31T05:11:57;18.10;99.90
19085;DHT22;9675;51.538;6.728;2023-07-31T05:14:26;18.10;99.90
19085;DHT22;9675;51.538;6.728;2023-07-31T05:16:53;18.10;99.90
19085;DHT22;9675;51.538;6.728;2023-07-31T05:19:20;18.10;99.90
19085;DHT22;9675;51.538;6.728;2023-07-31T05:21:47;18.10;99.90
19085;DHT22;9675;51.538;6.728;2023-07-31T05:24:14;18.10;99.90
19085;DHT22;9675;51.538;6.728;2023-07-31T05:26:42;18.10;99.90
19085;DHT22;9675;51.538;6.728;2023-07-31T05:29:09;18.10;99.90
19085;DHT22;9675;51.538;6.728;2023-07-31T05:31:36;18.10;99.90
19085;DHT22;9675;51.538;6.728;2023-07-31T05:34:03;18.10;99.90
19085;DHT22;9675;51.538;6.728;2023-07-31T05:36:30;18.10;99.90
19085;DHT22;9675;51.538;6.728;2023-07-31T05:38:57;18.10;99.90
19085;DHT22;9675;51.538;6.728;2023-07-31T05:41:24;18.00;99.90
19085;DHT22;9675;51.538;6.728;2023-07-31T05:43:53;18.00;99.90
19085;DHT22;9675;51.538;6.728;2023-07-31T05:46:20;18.00;99.90
19085;DHT22;9675;51.538;6.728;2023-07-31T05:48:47;18.00;99.90
19085;DHT22;9675;51.538;6.728;2023-07-31T05:51:14;18.00;99.90
19085;DHT22;9675;51.538;6.728;2023-07-31T05:53:41;18.00;99.90
19085;DHT22;9675;51.538;6.728;2023-07-31T05:56:09;18.00;99.90
19085;DHT22;9675;51.538;6.728;2023-07-31T05:58:36;18.00;99.90
19085;DHT22;9675;51.538;6.728;2023-07-31T06:01:04;18.00;99.90
19085;DHT22;9675;51.538;6.728;2023-07-31T06:03:31;18.00;99.90
19085;DHT22;9675;51.538;6.728;2023-07-31T06:05:58;18.00;99.90
19085;DHT22;9675;51.538;6.728;2023-07-31T06:08:25;18.00;99.90
19085;DHT22;9675;51.538;6.728;2023-07-31T06:10:52;18.00;99.90
19085;DHT22;9675;51.538;6.728;2023-07-31T06:13:19;18.10;99.90
19085;DHT22;9675;51.538;6.728;2023-07-31T06:15:46;18.10;99.90
19085;DHT22;9675;51.538;6.728;2023-07-31T06:18:15;18.10;99.90
19085;DHT22;9675;51.538;6.728;2023-07-31T06:20:42;18.10;99.90
19085;DHT22;9675;51.538;6.728;2023-07-31T06:23:09;18.10;99.90
19085;DHT22;9675;51.538;6.728;2023-07-31T06:25:36;18.10;99.90
19085;DHT22;9675;51.538;6.728;2023-07-31T06:28:03;18.10;99.90
19085;DHT22;9675;51.538;6.728;2023-07-31T06:30:30;18.00;99.90
19085;DHT22;9675;51.538;6.728;2023-07-31T06:32:57;18.00;99.90
19085;DHT22;9675;51.538;6.728;2023-07-31T06:35:25;18.10;99.90
19085;DHT22;9675;51.538;6.728;2023-07-31T06:37:52;18.10;99.90
19085;DHT22;9675;51.538;6.728;2023-07-31T06:40:19;18.10;99.90
19085;DHT22;9675;51.538;6.728;2023-07-31T06:42:46;18.10;99.90
19085;DHT22;9675;51.538;6.728;2023-07-31T06:45:13;18.10;99.90
19085;DHT22;9675;51.538;6.728;2023-07-31T06:47:40;18.10;99.90
19085;DHT22;9675;51.538;6.728;2023-07-31T06:50:08;18.10;99.90
19085;DHT22;9675;51.538;6.728;2023-07-31T06:52:36;18.00;99.90
19085;DHT22;9675;51.538;6.728;2023-07-31T06:55:16;18.00;99.90
19085;DHT22;9675;51.538;6.728;2023-07-31T06:57:44;18.00;99.90
19085;DHT22;9675;51.538;6.728;2023-07-31T07:00:12;18.00;99.90
19085;DHT22;9675;51.538;6.728;2023-07-31T07:02:39;18.00;99.90
19085;DHT22;9675;51.538;6.728;2023-07-31T07:05:07;18.00;99.90
19085;DHT22;9675;51.538;6.728;2023-07-31T07:07:34;18.00;99.90
19085;DHT22;9675;51.538;6.728;2023-07-31T07:10:04;18.00;99.90
19085;DHT22;9675;51.538;6.728;2023-07-31T07:12:32;18.00;99.90
19085;DHT22;9675;51.538;6.728;2023-07-31T07:15:00;18.00;99.90
19085;DHT22;9675;51.538;6.728;2023-07-31T07:17:29;18.00;99.90
19085;DHT22;9675;51.538;6.728;2023-07-31T07:19:58;18.00;99.90
19085;DHT22;9675;51.538;6.728;2023-07-31T07:22:25;18.00;99.90
19085;DHT22;9675;51.538;6.728;2023-07-31T07:24:53;18.00;99.90
19085;DHT22;9675;51.538;6.728;2023-07-31T07:27:21;18.00;99.90
19085;DHT22;9675;51.538;6.728;2023-07-31T07:29:50;18.00;99.90
19085;DHT22;9675;51.538;6.728;2023-07-31T07:32:18;18.00;99.90
19085;DHT22;9675;51.538;6.728;2023-07-31T07:34:46;18.00;99.90
19085;DHT22;9675;51.538;6.728;2023-07-31T07:37:14;18.00;99.90
19085;DHT22;9675;51.538;6.728;2023-07-31T07:39:41;18.00;99.90
19085;DHT22;9675;51.538;6.728;2023-07-31T07:42:08;18.00;99.90
19085;DHT22;9675;51.538;6.728;2023-07-31T07:44:36;18.00;99.90
19085;DHT22;9675;51.538;6.728;2023-07-31T07:47:04;18.00;99.90
19085;DHT22;9675;51.538;6.728;2023-07-31T07:49:33;18.00;99.90
19085;DHT22;9675;51.538;6.728;2023-07-31T07:52:00;18.00;99.90
19085;DHT22;9675;51.538;6.728;2023-07-31T07:54:28;18.00;99.90
19085;DHT22;9675;51.538;6.728;2023-07-31T07:56:54;18.00;99.90
19085;DHT22;9675;51.538;6.728;2023-07-31T07:59:22;18.00;99.90
19085;DHT22;9675;51.538;6.728;2023-07-31T08:01:50;18.00;99.90
19085;DHT22;9675;51.538;6.728;2023-07-31T08:04:17;18.00;99.90
19085;DHT22;9675;51.538;6.728;2023-07-31T08:06:44;18.00;99.90
19085;DHT22;9675;51.538;6.728;2023-07-31T08:09:11;18.00;99.90
19085;DHT22;9675;51.538;6.728;2023-07-31T08:11:38;18.00;99.90
19085;DHT22;9675;51.538;6.728;2023-07-31T08:14:05;18.00;99.90
19085;DHT22;9675;51.538;6.728;2023-07-31T08:16:32;18.00;99.90
19085;DHT22;9675;51.538;6.728;2023-07-31T08:19:00;18.00;99.90
19085;DHT22;9675;51.538;6.728;2023-07-31T08:21:27;17.90;99.90
19085;DHT22;9675;51.538;6.728;2023-07-31T08:23:55;18.00;99.90
19085;DHT22;9675;51.538;6.728;2023-07-31T08:26:22;17.90;99.90
19085;DHT22;9675;51.538;6.728;2023-07-31T08:28:49;18.00;99.90
19085;DHT22;9675;51.538;6.728;2023-07-31T08:31:16;18.00;99.90
19085;DHT22;9675;51.538;6.728;2023-07-31T08:33:43;18.00;99.90
19085;DHT22;9675;51.538;6.728;2023-07-31T08:36:12;18.00;99.90
19085;DHT22;9675;51.538;6.728;2023-07-31T08:38:39;18.00;99.90
19085;DHT22;9675;51.538;6.728;2023-07-31T08:41:06;18.00;99.90
19085;DHT22;9675;51.538;6.728;2023-07-31T08:43:33;18.00;99.90
19085;DHT22;9675;51.538;6.728;2023-07-31T08:46:02;18.00;99.90
19085;DHT22;9675;51.538;6.728;2023-07-31T08:48:30;18.00;99.90
19085;DHT22;9675;51.538;6.728;2023-07-31T08:50:58;18.00;99.90
19085;DHT22;9675;51.538;6.728;2023-07-31T08:53:26;18.00;99.90
19085;DHT22;9675;51.538;6.728;2023-07-31T08:55:54;18.00;99.90
19085;DHT22;9675;51.538;6.728;2023-07-31T08:58:23;18.00;99.90
19085;DHT22;9675;51.538;6.728;2023-07-31T09:00:52;18.00;99.90
19085;DHT22;9675;51.538;6.728;2023-07-31T09:03:23;18.00;99.90
19085;DHT22;9675;51.538;6.728;2023-07-31T09:05:53;18.10;99.90
19085;DHT22;9675;51.538;6.728;2023-07-31T09:08:27;18.10;99.90
19085;DHT22;9675;51.538;6.728;2023-07-31T09:10:59;18.00;99.90
19085;DHT22;9675;51.538;6.728;2023-07-31T09:13:29;18.00;99.90
19085;DHT22;9675;51.538;6.728;2023-07-31T09:15:57;18.00;99.90
19085;DHT22;9675;51.538;6.728;2023-07-31T09:18:25;18.10;99.90
19085;DHT22;9675;51.538;6.728;2023-07-31T09:21:01;18.00;99.90
19085;DHT22;9675;51.538;6.728;2023-07-31T09:23:42;18.10;99.90
19085;DHT22;9675;51.538;6.728;2023-07-31T09:26:10;18.10;99.90
19085;DHT22;9675;51.538;6.728;2023-07-31T09:28:38;18.10;99.90
19085;DHT22;9675;51.538;6.728;2023-07-31T09:31:05;18.10;99.90
19085;DHT22;9675;51.538;6.728;2023-07-31T09:33:32;18.10;99.90
19085;DHT22;9675;51.538;6.728;2023-07-31T09:36:00;18.10;99.90
19085;DHT22;9675;51.538;6.728;2023-07-31T09:38:27;18.10;99.90
19085;DHT22;9675;51.538;6.728;2023-07-31T09:40:58;18.10;99.90
19085;DHT22;9675;51.538;6.728;2023-07-31T09:43:27;18.10;99.90
19085;DHT22;9675;51.538;6.728;2023-07-31T09:45:55;18.10;99.90
19085;DHT22;9675;51.538;6.728;2023-07-31T09:48:24;18.10;99.90
19085;DHT22;9675;51.538;6.728;2023-07-31T09:50:53;18.10;99.90
19085;DHT22;9675;51.538;6.728;2023-07-31T09:53:28;18.10;99.90
19085;DHT22;9675;51.538;6.728;2023-07-31T09:55:59;18.20;99.90
19085;DHT22;9675;51.538;6.728;2023-07-31T09:58:29;18.20;99.90
19085;DHT22;9675;51.538;6.728;2023-07-31T10:00:58;18.20;99.90
19085;DHT22;9675;51.538;6.728;2023-07-31T10:03:26;18.20;99.90
19085;DHT22;9675;51.538;6.728;2023-07-31T10:05:57;18.20;99.90
19085;DHT22;9675;51.538;6.728;2023-07-31T10:08:28;18.20;99.90
19085;DHT22;9675;51.538;6.728;2023-07-31T10:11:00;18.20;99.90
19085;DHT22;9675;51.538;6.728;2023-07-31T10:13:30;18.20;99.90
19085;DHT22;9675;51.538;6.728;2023-07-31T10:15:59;18.20;99.90
19085;DHT22;9675;51.538;6.728;2023-07-31T10:18:27;18.20;99.90
19085;DHT22;9675;51.538;6.728;2023-07-31T10:20:55;18.20;99.90
19085;DHT22;9675;51.538;6.728;2023-07-31T10:23:23;18.20;99.90
19085;DHT22;9675;51.538;6.728;2023-07-31T10:25:53;18.30;99.90
19085;DHT22;9675;51.538;6.728;2023-07-31T10:28:22;18.20;99.90
19085;DHT22;9675;51.538;6.728;2023-07-31T10:30:52;18.30;99.90
19085;DHT22;9675;51.538;6.728;2023-07-31T10:33:21;18.30;99.90
19085;DHT22;9675;51.538;6.728;2023-07-31T10:35:48;18.30;99.90
19085;DHT22;9675;51.538;6.728;2023-07-31T10:38:17;18.30;99.90
19085;DHT22;9675;51.538;6.728;2023-07-31T10:40:44;18.30;99.90
19085;DHT22;9675;51.538;6.728;2023-07-31T10:43:25;18.30;99.90
19085;DHT22;9675;51.538;6.728;2023-07-31T10:45:53;18.30;99.90
19085;DHT22;9675;51.538;6.728;2023-07-31T10:48:20;18.40;99.90
19085;DHT22;9675;51.538;6.728;2023-07-31T10:50:50;18.40;99.90
19085;DHT22;9675;51.538;6.728;2023-07-31T10:53:24;18.40;99.90
19085;DHT22;9675;51.538;6.728;2023-07-31T10:55:52;18.40;99.90
19085;DHT22;9675;51.538;6.728;2023-07-31T10:58:25;18.40;99.90
19085;DHT22;9675;51.538;6.728;2023-07-31T11:00:55;18.40;99.90
19085;DHT22;9675;51.538;6.728;2023-07-31T11:03:26;18.40;99.90
19085;DHT22;9675;51.538;6.728;2023-07-31T11:06:06;18.40;99.90
19085;DHT22;9675;51.538;6.728;2023-07-31T11:08:35;18.40;99.90
19085;DHT22;9675;51.538;6.728;2023-07-31T11:11:09;18.40;99.90
19085;DHT22;9675;51.538;6.728;2023-07-31T11:13:43;18.50;99.90
19085;DHT22;9675;51.538;6.728;2023-07-31T11:16:12;18.50;99.90
19085;DHT22;9675;51.538;6.728;2023-07-31T11:18:40;18.50;99.90
19085;DHT22;9675;51.538;6.728;2023-07-31T11:21:08;18.50;99.90
19085;DHT22;9675;51.538;6.728;2023-07-31T11:23:37;18.50;99.90
19085;DHT22;9675;51.538;6.728;2023-07-31T11:26:05;18.60;99.90
19085;DHT22;9675;51.538;6.728;2023-07-31T11:28:33;18.60;99.90
19085;DHT22;9675;51.538;6.728;2023-07-31T11:31:03;18.60;99.90
19085;DHT22;9675;51.538;6.728;2023-07-31T11:33:31;18.60;99.90
19085;DHT22;9675;51.538;6.728;2023-07-31T11:35:58;18.60;99.90
19085;DHT22;9675;51.538;6.728;2023-07-31T11:38:27;18.60;99.90
19085;DHT22;9675;51.538;6.728;2023-07-31T11:40:56;18.60;99.90
19085;DHT22;9675;51.538;6.728;2023-07-31T11:43:26;18.60;99.90
19085;DHT22;9675;51.538;6.728;2023-07-31T11:45:55;18.60;99.90
19085;DHT22;9675;51.538;6.728;2023-07-31T11:48:26;18.60;99.90
19085;DHT22;9675;51.538;6.728;2023-07-31T11:50:57;18.60;99.90
19085;DHT22;9675;51.538;6.728;2023-07-31T11:53:28;18.60;99.90
19085;DHT22;9675;51.538;6.728;2023-07-31T11:56:00;18.60;99.90
19085;DHT22;9675;51.538;6.728;2023-07-31T11:58:31;18.60;99.90
19085;DHT22;9675;51.538;6.728;2023-07-31T12:00:59;18.60;99.90
19085;DHT22;9675;51.538;6.728;2023-07-31T12:03:29;18.70;99.90
19085;DHT22;9675;51.538;6.728;2023-07-31T12:05:56;18.70;99.90
19085;DHT22;9675;51.538;6.728;2023-07-31T12:08:25;18.70;99.90
19085;DHT22;9675;51.538;6.728;2023-07-31T12:10:53;18.70;99.90
19085;DHT22;9675;51.538;6.728;2023-07-31T12:13:22;18.70;99.90
19085;DHT22;9675;51.538;6.728;2023-07-31T12:15:54;18.70;99.90
19085;DHT22;9675;51.538;6.728;2023-07-31T12:18:24;18.70;99.90
19085;DHT22;9675;51.538;6.728;2023-07-31T12:20:56;18.70;99.90
19085;DHT22;9675;51.538;6.728;2023-07-31T12:23:26;18.80;99.90
19085;DHT22;9675;51.538;6.728;2023-07-31T12:26:00;18.80;99.90
19085;DHT22;9675;51.538;6.728;2023-07-31T12:28:28;18.80;99.90
19085;DHT22;9675;51.538;6.728;2023-07-31T12:30:57;18.80;99.90
19085;DHT22;9675;51.538;6.728;2023-07-31T12:33:30;18.80;99.90
19085;DHT22;9675;51.538;6.728;2023-07-31T12:36:01;18.80;99.90
19085;DHT22;9675;51.538;6.728;2023-07-31T12:38:29;18.80;99.90
19085;DHT22;9675;51.538;6.728;2023-07-31T12:40:56;18.90;99.90
19085;DHT22;9675;51.538;6.728;2023-07-31T12:43:23;18.90;99.90
19085;DHT22;9675;51.538;6.728;2023-07-31T12:45:50;18.90;99.90
19085;DHT22;9675;51.538;6.728;2023-07-31T12:48:17;18.90;99.90
19085;DHT22;9675;51.538;6.728;2023-07-31T12:50:44;18.90;99.90
19085;DHT22;9675;51.538;6.728;2023-07-31T12:53:13;18.90;99.90
19085;DHT22;9675;51.538;6.728;2023-07-31T12:55:41;18.90;99.90
19085;DHT22;9675;51.538;6.728;2023-07-31T12:58:08;18.90;99.90
19085;DHT22;9675;51.538;6.728;2023-07-31T13:00:35;18.90;99.90
19085;DHT22;9675;51.538;6.728;2023-07-31T13:03:03;18.90;99.90
19085;DHT22;9675;51.538;6.728;2023-07-31T13:05:30;18.90;99.90
19085;DHT22;9675;51.538;6.728;2023-07-31T13:07:57;19.00;99.90
19085;DHT22;9675;51.538;6.728;2023-07-31T13:10:27;19.00;99.90
19085;DHT22;9675;51.538;6.728;2023-07-31T13:12:55;19.00;99.90
19085;DHT22;9675;51.538;6.728;2023-07-31T13:15:23;19.00;99.90
19085;DHT22;9675;51.538;6.728;2023-07-31T13:17:50;19.00;99.90
19085;DHT22;9675;51.538;6.728;2023-07-31T13:20:17;19.00;99.90
19085;DHT22;9675;51.538;6.728;2023-07-31T13:22:44;19.00;99.90
19085;DHT22;9675;51.538;6.728;2023-07-31T13:25:11;19.00;99.90
19085;DHT22;9675;51.538;6.728;2023-07-31T13:27:40;19.10;99.90
19085;DHT22;9675;51.538;6.728;2023-07-31T13:30:07;19.10;99.90
19085;DHT22;9675;51.538;6.728;2023-07-31T13:32:35;19.10;99.90
19085;DHT22;9675;51.538;6.728;2023-07-31T13:35:04;19.10;99.90
19085;DHT22;9675;51.538;6.728;2023-07-31T13:37:32;19.10;99.90
19085;DHT22;9675;51.538;6.728;2023-07-31T13:39:59;19.10;99.90
19085;DHT22;9675;51.538;6.728;2023-07-31T13:42:26;19.20;99.90
19085;DHT22;9675;51.538;6.728;2023-07-31T13:44:55;19.20;99.90
19085;DHT22;9675;51.538;6.728;2023-07-31T13:47:22;19.20;99.90
19085;DHT22;9675;51.538;6.728;2023-07-31T13:49:49;19.20;99.90
19085;DHT22;9675;51.538;6.728;2023-07-31T13:52:16;19.10;99.90
19085;DHT22;9675;51.538;6.728;2023-07-31T13:54:43;19.20;99.90
19085;DHT22;9675;51.538;6.728;2023-07-31T13:57:11;19.20;99.90
19085;DHT22;9675;51.538;6.728;2023-07-31T13:59:37;19.20;99.90
19085;DHT22;9675;51.538;6.728;2023-07-31T14:02:06;19.20;99.90
19085;DHT22;9675;51.538;6.728;2023-07-31T14:04:33;19.20;99.90
19085;DHT22;9675;51.538;6.728;2023-07-31T14:07:00;19.20;99.90
19085;DHT22;9675;51.538;6.728;2023-07-31T14:09:28;19.20;99.90
19085;DHT22;9675;51.538;6.728;2023-07-31T14:11:55;19.30;99.90
19085;DHT22;9675;51.538;6.728;2023-07-31T14:14:22;19.30;99.90
19085;DHT22;9675;51.538;6.728;2023-07-31T14:16:50;19.30;99.90
19085;DHT22;9675;51.538;6.728;2023-07-31T14:19:18;19.40;99.90
19085;DHT22;9675;51.538;6.728;2023-07-31T14:21:45;19.40;99.90
19085;DHT22;9675;51.538;6.728;2023-07-31T14:24:12;19.40;99.90
19085;DHT22;9675;51.538;6.728;2023-07-31T14:26:39;19.40;99.90
19085;DHT22;9675;51.538;6.728;2023-07-31T14:29:06;19.40;99.90
19085;DHT22;9675;51.538;6.728;2023-07-31T14:31:33;19.50;99.90
19085;DHT22;9675;51.538;6.728;2023-07-31T14:34:00;19.40;99.90
19085;DHT22;9675;51.538;6.728;2023-07-31T14:36:29;19.50;99.90
19085;DHT22;9675;51.538;6.728;2023-07-31T14:38:56;19.50;99.90
19085;DHT22;9675;51.538;6.728;2023-07-31T14:41:23;19.50;99.90
19085;DHT22;9675;51.538;6.728;2023-07-31T14:43:50;19.50;99.90
19085;DHT22;9675;51.538;6.728;2023-07-31T14:46:17;19.50;99.90
19085;DHT22;9675;51.538;6.728;2023-07-31T14:48:44;19.50;99.90
19085;DHT22;9675;51.538;6.728;2023-07-31T14:51:11;19.50;99.90
19085;DHT22;9675;51.538;6.728;2023-07-31T14:53:41;19.50;99.90
19085;DHT22;9675;51.538;6.728;2023-07-31T14:56:08;19.60;99.90
19085;DHT22;9675;51.538;6.728;2023-07-31T14:58:35;19.60;99.90
19085;DHT22;9675;51.538;6.728;2023-07-31T15:01:02;19.60;99.90
19085;DHT22;9675;51.538;6.728;2023-07-31T15:03:29;19.60;99.90
19085;DHT22;9675;51.538;6.728;2023-07-31T15:05:56;19.60;99.90
19085;DHT22;9675;51.538;6.728;2023-07-31T15:08:23;19.60;99.90
19085;DHT22;9675;51.538;6.728;2023-07-31T15:10:51;19.60;99.90
19085;DHT22;9675;51.538;6.728;2023-07-31T15:13:22;19.60;99.90
19085;DHT22;9675;51.538;6.728;2023-07-31T15:15:50;19.60;99.90
19085;DHT22;9675;51.538;6.728;2023-07-31T15:18:17;19.60;99.90
19085;DHT22;9675;51.538;6.728;2023-07-31T15:20:44;19.60;99.90
19085;DHT22;9675;51.538;6.728;2023-07-31T15:23:11;19.60;99.90
19085;DHT22;9675;51.538;6.728;2023-07-31T15:25:38;19.60;99.90
19085;DHT22;9675;51.538;6.728;2023-07-31T15:28:06;19.60;99.90
19085;DHT22;9675;51.538;6.728;2023-07-31T15:30:35;19.60;99.90
19085;DHT22;9675;51.538;6.728;2023-07-31T15:33:03;19.60;99.90
19085;DHT22;9675;51.538;6.728;2023-07-31T15:35:30;19.60;99.90
19085;DHT22;9675;51.538;6.728;2023-07-31T15:37:57;19.60;99.90
19085;DHT22;9675;51.538;6.728;2023-07-31T15:40:24;19.60;99.90
19085;DHT22;9675;51.538;6.728;2023-07-31T15:42:51;19.60;99.90
19085;DHT22;9675;51.538;6.728;2023-07-31T15:45:20;19.60;99.90
19085;DHT22;9675;51.538;6.728;2023-07-31T15:47:48;19.60;99.90
19085;DHT22;9675;51.538;6.728;2023-07-31T15:50:15;19.60;99.90